sensor_id;sensor_type;location;lat;lon;timestamp;P1;durP1;ratioP1;P2;durP2;ratioP2
26540;SDS011;14206;50.202;10.948;2024-02-14T00:00:54;4.55;;;3.42;;
26540;SDS011;14206;50.202;10.948;2024-02-14T00:03:22;3.92;;;3.17;;
26540;SDS011;14206;50.202;10.948;2024-02-14T00:05:50;3.92;;;2.97;;
26540;SDS011;14206;50.202;10.948;2024-02-14T00:08:18;3.95;;;3.13;;
26540;SDS011;14206;50.202;10.948;2024-02-14T00:10:45;3.80;;;2.92;;
26540;SDS011;14206;50.202;10.948;2024-02-14T00:13:13;4.40;;;3.28;;
26540;SDS011;14206;50.202;10.948;2024-02-14T00:15:40;4.25;;;3.35;;
26540;SDS011;14206;50.202;10.948;2024-02-14T00:18:08;4.20;;;3.17;;
26540;SDS011;14206;50.202;10.948;2024-02-14T00:20:35;4.43;;;3.60;;
26540;SDS011;14206;50.202;10.948;2024-02-14T00:23:02;4.95;;;3.85;;
26540;SDS011;14206;50.202;10.948;2024-02-14T00:25:29;4.63;;;3.53;;
26540;SDS011;14206;50.202;10.948;2024-02-14T00:27:56;4.90;;;3.78;;
26540;SDS011;14206;50.202;10.948;2024-02-14T00:30:26;4.75;;;3.60;;
26540;SDS011;14206;50.202;10.948;2024-02-14T00:32:56;4.63;;;3.50;;
26540;SDS011;14206;50.202;10.948;2024-02-14T00:35:24;4.88;;;3.80;;
26540;SDS011;14206;50.202;10.948;2024-02-14T00:37:51;4.60;;;3.70;;
26540;SDS011;14206;50.202;10.948;2024-02-14T00:40:18;4.85;;;4.00;;
26540;SDS011;14206;50.202;10.948;2024-02-14T00:42:45;5.03;;;4.13;;
26540;SDS011;14206;50.202;10.948;2024-02-14T00:45:12;4.85;;;3.53;;
26540;SDS011;14206;50.202;10.948;2024-02-14T00:47:39;5.20;;;4.07;;
26540;SDS011;14206;50.202;10.948;2024-02-14T00:50:06;5.00;;;4.20;;
26540;SDS011;14206;50.202;10.948;2024-02-14T00:52:34;5.95;;;4.20;;
26540;SDS011;14206;50.202;10.948;2024-02-14T00:55:00;5.65;;;4.07;;
26540;SDS011;14206;50.202;10.948;2024-02-14T00:57:29;6.68;;;4.25;;
26540;SDS011;14206;50.202;10.948;2024-02-14T00:59:58;5.60;;;4.32;;
26540;SDS011;14206;50.202;10.948;2024-02-14T01:02:26;4.75;;;3.88;;
26540;SDS011;14206;50.202;10.948;2024-02-14T01:04:54;4.78;;;4.00;;
26540;SDS011;14206;50.202;10.948;2024-02-14T01:07:21;5.45;;;3.83;;
26540;SDS011;14206;50.202;10.948;2024-02-14T01:09:47;5.78;;;4.13;;
26540;SDS011;14206;50.202;10.948;2024-02-14T01:12:14;4.53;;;3.85;;
26540;SDS011;14206;50.202;10.948;2024-02-14T01:14:47;6.35;;;3.75;;
26540;SDS011;14206;50.202;10.948;2024-02-14T01:17:15;5.38;;;3.83;;
26540;SDS011;14206;50.202;10.948;2024-02-14T01:19:42;4.30;;;3.50;;
26540;SDS011;14206;50.202;10.948;2024-02-14T01:22:10;5.35;;;3.80;;
26540;SDS011;14206;50.202;10.948;2024-02-14T01:24:37;3.88;;;3.35;;
26540;SDS011;14206;50.202;10.948;2024-02-14T01:27:03;4.22;;;3.45;;
26540;SDS011;14206;50.202;10.948;2024-02-14T01:29:31;4.15;;;3.30;;
26540;SDS011;14206;50.202;10.948;2024-02-14T01:31:58;4.50;;;3.60;;
26540;SDS011;14206;50.202;10.948;2024-02-14T01:34:26;3.80;;;3.20;;
26540;SDS011;14206;50.202;10.948;2024-02-14T01:36:54;4.00;;;3.20;;
26540;SDS011;14206;50.202;10.948;2024-02-14T01:39:21;3.65;;;3.08;;
26540;SDS011;14206;50.202;10.948;2024-02-14T01:41:48;4.10;;;3.50;;
26540;SDS011;14206;50.202;10.948;2024-02-14T01:44:16;4.25;;;2.97;;
26540;SDS011;14206;50.202;10.948;2024-02-14T01:46:43;3.97;;;3.55;;
26540;SDS011;14206;50.202;10.948;2024-02-14T01:49:11;5.20;;;3.70;;
26540;SDS011;14206;50.202;10.948;2024-02-14T01:51:42;4.10;;;3.40;;
26540;SDS011;14206;50.202;10.948;2024-02-14T01:54:11;4.50;;;3.78;;
26540;SDS011;14206;50.202;10.948;2024-02-14T01:56:40;4.00;;;3.25;;
26540;SDS011;14206;50.202;10.948;2024-02-14T01:59:07;4.30;;;3.70;;
26540;SDS011;14206;50.202;10.948;2024-02-14T02:01:36;3.97;;;3.25;;
26540;SDS011;14206;50.202;10.948;2024-02-14T02:04:03;3.83;;;3.13;;
26540;SDS011;14206;50.202;10.948;2024-02-14T02:06:37;5.88;;;3.38;;
26540;SDS011;14206;50.202;10.948;2024-02-14T02:09:04;4.75;;;3.50;;
26540;SDS011;14206;50.202;10.948;2024-02-14T02:11:41;6.18;;;4.07;;
26540;SDS011;14206;50.202;10.948;2024-02-14T02:14:20;4.97;;;3.70;;
26540;SDS011;14206;50.202;10.948;2024-02-14T02:16:48;4.45;;;3.75;;
26540;SDS011;14206;50.202;10.948;2024-02-14T02:19:15;4.25;;;3.55;;
26540;SDS011;14206;50.202;10.948;2024-02-14T02:21:42;3.78;;;3.08;;
26540;SDS011;14206;50.202;10.948;2024-02-14T02:24:24;4.15;;;3.08;;
26540;SDS011;14206;50.202;10.948;2024-02-14T02:26:51;5.50;;;4.07;;
26540;SDS011;14206;50.202;10.948;2024-02-14T02:29:18;5.28;;;3.40;;
26540;SDS011;14206;50.202;10.948;2024-02-14T02:31:46;4.35;;;3.40;;
26540;SDS011;14206;50.202;10.948;2024-02-14T02:34:13;4.50;;;3.45;;
26540;SDS011;14206;50.202;10.948;2024-02-14T02:36:43;3.78;;;3.20;;
26540;SDS011;14206;50.202;10.948;2024-02-14T02:39:12;4.32;;;3.75;;
26540;SDS011;14206;50.202;10.948;2024-02-14T02:41:40;4.82;;;3.60;;
26540;SDS011;14206;50.202;10.948;2024-02-14T02:44:07;4.20;;;3.42;;
26540;SDS011;14206;50.202;10.948;2024-02-14T02:46:34;3.70;;;3.00;;
26540;SDS011;14206;50.202;10.948;2024-02-14T02:49:01;5.22;;;3.85;;
26540;SDS011;14206;50.202;10.948;2024-02-14T02:51:28;5.32;;;3.80;;
26540;SDS011;14206;50.202;10.948;2024-02-14T02:53:56;4.93;;;3.50;;
26540;SDS011;14206;50.202;10.948;2024-02-14T02:56:23;4.63;;;3.60;;
26540;SDS011;14206;50.202;10.948;2024-02-14T02:58:54;4.20;;;3.30;;
26540;SDS011;14206;50.202;10.948;2024-02-14T03:01:21;5.03;;;3.28;;
26540;SDS011;14206;50.202;10.948;2024-02-14T03:03:51;4.90;;;2.80;;
26540;SDS011;14206;50.202;10.948;2024-02-14T03:06:18;3.75;;;3.15;;
26540;SDS011;14206;50.202;10.948;2024-02-14T03:08:46;4.13;;;3.38;;
26540;SDS011;14206;50.202;10.948;2024-02-14T03:11:15;3.30;;;2.55;;
26540;SDS011;14206;50.202;10.948;2024-02-14T03:13:42;2.83;;;2.50;;
26540;SDS011;14206;50.202;10.948;2024-02-14T03:16:10;2.67;;;2.42;;
26540;SDS011;14206;50.202;10.948;2024-02-14T03:18:37;3.22;;;2.88;;
26540;SDS011;14206;50.202;10.948;2024-02-14T03:21:05;2.92;;;2.55;;
26540;SDS011;14206;50.202;10.948;2024-02-14T03:23:32;2.63;;;2.42;;
26540;SDS011;14206;50.202;10.948;2024-02-14T03:25:59;3.10;;;2.80;;
26540;SDS011;14206;50.202;10.948;2024-02-14T03:28:26;5.22;;;2.90;;
26540;SDS011;14206;50.202;10.948;2024-02-14T03:30:53;2.83;;;2.50;;
26540;SDS011;14206;50.202;10.948;2024-02-14T03:33:20;4.32;;;3.33;;
26540;SDS011;14206;50.202;10.948;2024-02-14T03:35:55;4.43;;;3.03;;
26540;SDS011;14206;50.202;10.948;2024-02-14T03:38:28;5.18;;;3.50;;
26540;SDS011;14206;50.202;10.948;2024-02-14T03:40:57;4.28;;;3.50;;
26540;SDS011;14206;50.202;10.948;2024-02-14T03:43:24;5.47;;;3.90;;
26540;SDS011;14206;50.202;10.948;2024-02-14T03:45:51;4.82;;;3.88;;
26540;SDS011;14206;50.202;10.948;2024-02-14T03:48:18;5.18;;;4.00;;
26540;SDS011;14206;50.202;10.948;2024-02-14T03:50:45;5.70;;;4.65;;
26540;SDS011;14206;50.202;10.948;2024-02-14T03:53:12;6.43;;;4.63;;
26540;SDS011;14206;50.202;10.948;2024-02-14T03:55:40;4.93;;;4.20;;
26540;SDS011;14206;50.202;10.948;2024-02-14T03:58:07;7.60;;;4.10;;
26540;SDS011;14206;50.202;10.948;2024-02-14T04:00:34;4.20;;;3.58;;
26540;SDS011;14206;50.202;10.948;2024-02-14T04:03:01;6.35;;;4.47;;
26540;SDS011;14206;50.202;10.948;2024-02-14T04:05:29;7.07;;;3.80;;
26540;SDS011;14206;50.202;10.948;2024-02-14T04:07:56;5.90;;;4.25;;
26540;SDS011;14206;50.202;10.948;2024-02-14T04:10:23;8.85;;;4.45;;
26540;SDS011;14206;50.202;10.948;2024-02-14T04:12:50;6.15;;;4.25;;
26540;SDS011;14206;50.202;10.948;2024-02-14T04:15:17;6.75;;;4.60;;
26540;SDS011;14206;50.202;10.948;2024-02-14T04:17:44;6.15;;;4.55;;
26540;SDS011;14206;50.202;10.948;2024-02-14T04:20:11;5.88;;;4.65;;
26540;SDS011;14206;50.202;10.948;2024-02-14T04:22:37;6.18;;;4.38;;
26540;SDS011;14206;50.202;10.948;2024-02-14T04:25:05;4.80;;;3.95;;
26540;SDS011;14206;50.202;10.948;2024-02-14T04:27:34;5.05;;;4.15;;
26540;SDS011;14206;50.202;10.948;2024-02-14T04:30:01;5.80;;;4.07;;
26540;SDS011;14206;50.202;10.948;2024-02-14T04:32:28;5.53;;;4.55;;
26540;SDS011;14206;50.202;10.948;2024-02-14T04:34:55;5.63;;;4.03;;
26540;SDS011;14206;50.202;10.948;2024-02-14T04:37:23;4.25;;;3.40;;
26540;SDS011;14206;50.202;10.948;2024-02-14T04:39:50;4.68;;;3.65;;
26540;SDS011;14206;50.202;10.948;2024-02-14T04:42:17;6.72;;;4.28;;
26540;SDS011;14206;50.202;10.948;2024-02-14T04:44:44;4.00;;;3.45;;
26540;SDS011;14206;50.202;10.948;2024-02-14T04:47:12;4.85;;;3.90;;
26540;SDS011;14206;50.202;10.948;2024-02-14T04:49:38;5.05;;;3.67;;
26540;SDS011;14206;50.202;10.948;2024-02-14T04:52:05;3.83;;;3.30;;
26540;SDS011;14206;50.202;10.948;2024-02-14T04:54:33;5.10;;;4.10;;
26540;SDS011;14206;50.202;10.948;2024-02-14T04:57:00;5.63;;;4.22;;
26540;SDS011;14206;50.202;10.948;2024-02-14T04:59:29;5.13;;;3.97;;
26540;SDS011;14206;50.202;10.948;2024-02-14T05:01:56;5.90;;;4.22;;
26540;SDS011;14206;50.202;10.948;2024-02-14T05:04:23;4.95;;;4.35;;
26540;SDS011;14206;50.202;10.948;2024-02-14T05:06:50;5.88;;;4.10;;
26540;SDS011;14206;50.202;10.948;2024-02-14T05:09:22;5.22;;;3.83;;
26540;SDS011;14206;50.202;10.948;2024-02-14T05:11:49;6.88;;;3.90;;
26540;SDS011;14206;50.202;10.948;2024-02-14T05:14:16;5.30;;;3.85;;
26540;SDS011;14206;50.202;10.948;2024-02-14T05:16:44;6.18;;;4.00;;
26540;SDS011;14206;50.202;10.948;2024-02-14T05:19:11;6.45;;;3.80;;
26540;SDS011;14206;50.202;10.948;2024-02-14T05:21:38;6.28;;;4.45;;
26540;SDS011;14206;50.202;10.948;2024-02-14T05:24:05;6.15;;;3.60;;
26540;SDS011;14206;50.202;10.948;2024-02-14T05:26:33;4.43;;;3.75;;
26540;SDS011;14206;50.202;10.948;2024-02-14T05:29:00;6.18;;;4.15;;
26540;SDS011;14206;50.202;10.948;2024-02-14T05:31:29;4.60;;;3.55;;
26540;SDS011;14206;50.202;10.948;2024-02-14T05:34:10;5.45;;;3.70;;
26540;SDS011;14206;50.202;10.948;2024-02-14T05:36:38;6.43;;;4.13;;
26540;SDS011;14206;50.202;10.948;2024-02-14T05:39:05;7.00;;;4.05;;
26540;SDS011;14206;50.202;10.948;2024-02-14T05:41:32;6.93;;;4.07;;
26540;SDS011;14206;50.202;10.948;2024-02-14T05:43:59;5.00;;;4.13;;
26540;SDS011;14206;50.202;10.948;2024-02-14T05:46:26;5.65;;;4.15;;
26540;SDS011;14206;50.202;10.948;2024-02-14T05:48:54;5.13;;;3.78;;
26540;SDS011;14206;50.202;10.948;2024-02-14T05:51:21;5.65;;;3.75;;
26540;SDS011;14206;50.202;10.948;2024-02-14T05:53:48;6.72;;;4.10;;
26540;SDS011;14206;50.202;10.948;2024-02-14T05:56:15;6.15;;;3.70;;
26540;SDS011;14206;50.202;10.948;2024-02-14T05:58:42;5.55;;;3.70;;
26540;SDS011;14206;50.202;10.948;2024-02-14T06:01:09;6.68;;;3.83;;
26540;SDS011;14206;50.202;10.948;2024-02-14T06:03:36;6.13;;;4.10;;
26540;SDS011;14206;50.202;10.948;2024-02-14T06:06:03;5.88;;;4.03;;
26540;SDS011;14206;50.202;10.948;2024-02-14T06:08:30;4.97;;;4.05;;
26540;SDS011;14206;50.202;10.948;2024-02-14T06:10:57;6.95;;;4.30;;
26540;SDS011;14206;50.202;10.948;2024-02-14T06:13:23;6.35;;;4.05;;
26540;SDS011;14206;50.202;10.948;2024-02-14T06:15:50;7.38;;;4.22;;
26540;SDS011;14206;50.202;10.948;2024-02-14T06:18:17;6.30;;;4.47;;
26540;SDS011;14206;50.202;10.948;2024-02-14T06:20:44;5.93;;;4.18;;
26540;SDS011;14206;50.202;10.948;2024-02-14T06:23:12;5.97;;;4.28;;
26540;SDS011;14206;50.202;10.948;2024-02-14T06:25:39;5.25;;;4.07;;
26540;SDS011;14206;50.202;10.948;2024-02-14T06:28:06;6.80;;;4.38;;
26540;SDS011;14206;50.202;10.948;2024-02-14T06:30:32;5.05;;;3.92;;
26540;SDS011;14206;50.202;10.948;2024-02-14T06:32:59;7.53;;;4.30;;
26540;SDS011;14206;50.202;10.948;2024-02-14T06:35:28;6.63;;;4.40;;
26540;SDS011;14206;50.202;10.948;2024-02-14T06:37:57;6.95;;;3.95;;
26540;SDS011;14206;50.202;10.948;2024-02-14T06:40:30;6.15;;;3.70;;
26540;SDS011;14206;50.202;10.948;2024-02-14T06:42:57;6.40;;;4.20;;
26540;SDS011;14206;50.202;10.948;2024-02-14T06:45:26;5.90;;;4.18;;
26540;SDS011;14206;50.202;10.948;2024-02-14T06:47:54;6.28;;;4.03;;
26540;SDS011;14206;50.202;10.948;2024-02-14T06:50:21;5.50;;;4.05;;
26540;SDS011;14206;50.202;10.948;2024-02-14T06:52:48;5.70;;;3.78;;
26540;SDS011;14206;50.202;10.948;2024-02-14T06:55:15;4.75;;;3.55;;
26540;SDS011;14206;50.202;10.948;2024-02-14T06:57:42;7.38;;;3.97;;
26540;SDS011;14206;50.202;10.948;2024-02-14T07:00:09;9.18;;;4.50;;
26540;SDS011;14206;50.202;10.948;2024-02-14T07:02:37;7.60;;;4.57;;
26540;SDS011;14206;50.202;10.948;2024-02-14T07:05:04;6.75;;;4.25;;
26540;SDS011;14206;50.202;10.948;2024-02-14T07:07:33;6.53;;;4.50;;
26540;SDS011;14206;50.202;10.948;2024-02-14T07:10:00;6.30;;;4.28;;
26540;SDS011;14206;50.202;10.948;2024-02-14T07:12:27;6.07;;;4.80;;
26540;SDS011;14206;50.202;10.948;2024-02-14T07:14:56;6.53;;;4.50;;
26540;SDS011;14206;50.202;10.948;2024-02-14T07:17:23;4.50;;;3.53;;
26540;SDS011;14206;50.202;10.948;2024-02-14T07:19:50;5.85;;;3.92;;
26540;SDS011;14206;50.202;10.948;2024-02-14T07:22:17;5.10;;;3.90;;
26540;SDS011;14206;50.202;10.948;2024-02-14T07:24:47;5.93;;;3.97;;
26540;SDS011;14206;50.202;10.948;2024-02-14T07:27:14;6.53;;;4.00;;
26540;SDS011;14206;50.202;10.948;2024-02-14T07:29:43;5.18;;;3.50;;
26540;SDS011;14206;50.202;10.948;2024-02-14T07:32:11;4.88;;;3.30;;
26540;SDS011;14206;50.202;10.948;2024-02-14T07:34:38;5.32;;;3.75;;
26540;SDS011;14206;50.202;10.948;2024-02-14T07:37:06;5.97;;;3.83;;
26540;SDS011;14206;50.202;10.948;2024-02-14T07:39:33;4.40;;;3.80;;
26540;SDS011;14206;50.202;10.948;2024-02-14T07:42:04;7.63;;;4.78;;
26540;SDS011;14206;50.202;10.948;2024-02-14T07:44:31;5.13;;;4.18;;
26540;SDS011;14206;50.202;10.948;2024-02-14T07:46:58;4.80;;;3.80;;
26540;SDS011;14206;50.202;10.948;2024-02-14T07:49:29;6.93;;;4.15;;
26540;SDS011;14206;50.202;10.948;2024-02-14T07:51:57;5.35;;;3.83;;
26540;SDS011;14206;50.202;10.948;2024-02-14T07:54:24;4.65;;;3.83;;
26540;SDS011;14206;50.202;10.948;2024-02-14T07:56:51;6.22;;;4.00;;
26540;SDS011;14206;50.202;10.948;2024-02-14T07:59:17;5.43;;;4.18;;
26540;SDS011;14206;50.202;10.948;2024-02-14T08:01:44;4.53;;;3.33;;
26540;SDS011;14206;50.202;10.948;2024-02-14T08:04:11;6.55;;;4.18;;
26540;SDS011;14206;50.202;10.948;2024-02-14T08:06:38;5.18;;;3.65;;
26540;SDS011;14206;50.202;10.948;2024-02-14T08:09:05;4.03;;;3.58;;
26540;SDS011;14206;50.202;10.948;2024-02-14T08:11:36;4.03;;;3.20;;
26540;SDS011;14206;50.202;10.948;2024-02-14T08:14:03;4.70;;;3.40;;
26540;SDS011;14206;50.202;10.948;2024-02-14T08:16:30;5.38;;;3.55;;
26540;SDS011;14206;50.202;10.948;2024-02-14T08:18:57;4.13;;;3.22;;
26540;SDS011;14206;50.202;10.948;2024-02-14T08:21:27;4.20;;;3.35;;
26540;SDS011;14206;50.202;10.948;2024-02-14T08:23:57;5.18;;;3.90;;
26540;SDS011;14206;50.202;10.948;2024-02-14T08:26:27;4.20;;;3.25;;
26540;SDS011;14206;50.202;10.948;2024-02-14T08:28:54;5.15;;;3.70;;
26540;SDS011;14206;50.202;10.948;2024-02-14T08:31:21;4.95;;;3.85;;
26540;SDS011;14206;50.202;10.948;2024-02-14T08:33:49;6.03;;;4.28;;
26540;SDS011;14206;50.202;10.948;2024-02-14T08:36:16;4.65;;;3.75;;
26540;SDS011;14206;50.202;10.948;2024-02-14T08:38:45;5.13;;;3.35;;
26540;SDS011;14206;50.202;10.948;2024-02-14T08:41:12;5.35;;;3.63;;
26540;SDS011;14206;50.202;10.948;2024-02-14T08:43:40;4.65;;;3.45;;
26540;SDS011;14206;50.202;10.948;2024-02-14T08:46:10;5.18;;;3.80;;
26540;SDS011;14206;50.202;10.948;2024-02-14T08:48:37;6.97;;;4.40;;
26540;SDS011;14206;50.202;10.948;2024-02-14T08:53:40;7.72;;;4.43;;
26540;SDS011;14206;50.202;10.948;2024-02-14T08:56:10;6.97;;;4.28;;
26540;SDS011;14206;50.202;10.948;2024-02-14T08:58:37;7.38;;;4.07;;
26540;SDS011;14206;50.202;10.948;2024-02-14T09:01:04;5.28;;;3.88;;
26540;SDS011;14206;50.202;10.948;2024-02-14T09:03:40;5.07;;;4.20;;
26540;SDS011;14206;50.202;10.948;2024-02-14T09:06:10;6.88;;;4.30;;
26540;SDS011;14206;50.202;10.948;2024-02-14T09:08:37;6.38;;;4.38;;
26540;SDS011;14206;50.202;10.948;2024-02-14T09:11:04;6.55;;;3.97;;
26540;SDS011;14206;50.202;10.948;2024-02-14T09:13:31;4.75;;;3.67;;
26540;SDS011;14206;50.202;10.948;2024-02-14T09:15:58;5.43;;;3.80;;
26540;SDS011;14206;50.202;10.948;2024-02-14T09:18:25;6.65;;;3.78;;
26540;SDS011;14206;50.202;10.948;2024-02-14T09:20:53;3.88;;;3.40;;
26540;SDS011;14206;50.202;10.948;2024-02-14T09:23:20;4.25;;;3.35;;
26540;SDS011;14206;50.202;10.948;2024-02-14T09:25:49;4.50;;;3.40;;
26540;SDS011;14206;50.202;10.948;2024-02-14T09:28:16;4.72;;;3.35;;
26540;SDS011;14206;50.202;10.948;2024-02-14T09:30:43;7.22;;;4.03;;
26540;SDS011;14206;50.202;10.948;2024-02-14T09:33:10;5.55;;;4.10;;
26540;SDS011;14206;50.202;10.948;2024-02-14T09:35:37;5.75;;;3.65;;
26540;SDS011;14206;50.202;10.948;2024-02-14T09:38:10;5.00;;;4.03;;
26540;SDS011;14206;50.202;10.948;2024-02-14T09:40:42;5.75;;;3.50;;
26540;SDS011;14206;50.202;10.948;2024-02-14T09:43:22;5.53;;;3.92;;
26540;SDS011;14206;50.202;10.948;2024-02-14T09:46:01;8.52;;;3.90;;
26540;SDS011;14206;50.202;10.948;2024-02-14T09:48:29;7.93;;;3.67;;
26540;SDS011;14206;50.202;10.948;2024-02-14T09:50:57;6.18;;;3.95;;
26540;SDS011;14206;50.202;10.948;2024-02-14T09:53:25;5.95;;;4.13;;
26540;SDS011;14206;50.202;10.948;2024-02-14T09:55:55;6.35;;;4.50;;
26540;SDS011;14206;50.202;10.948;2024-02-14T09:58:22;5.63;;;3.90;;
26540;SDS011;14206;50.202;10.948;2024-02-14T10:00:51;5.05;;;3.90;;
26540;SDS011;14206;50.202;10.948;2024-02-14T10:03:18;7.43;;;4.20;;
26540;SDS011;14206;50.202;10.948;2024-02-14T10:05:45;6.22;;;4.25;;
26540;SDS011;14206;50.202;10.948;2024-02-14T10:08:12;5.68;;;3.45;;
26540;SDS011;14206;50.202;10.948;2024-02-14T10:10:40;7.38;;;3.63;;
26540;SDS011;14206;50.202;10.948;2024-02-14T10:13:07;5.13;;;3.30;;
26540;SDS011;14206;50.202;10.948;2024-02-14T10:15:33;7.00;;;4.35;;
26540;SDS011;14206;50.202;10.948;2024-02-14T10:18:01;5.90;;;4.05;;
26540;SDS011;14206;50.202;10.948;2024-02-14T10:20:30;6.47;;;3.78;;
26540;SDS011;14206;50.202;10.948;2024-02-14T10:23:01;4.63;;;3.17;;
26540;SDS011;14206;50.202;10.948;2024-02-14T10:25:30;5.40;;;3.20;;
26540;SDS011;14206;50.202;10.948;2024-02-14T10:28:04;7.25;;;3.83;;
26540;SDS011;14206;50.202;10.948;2024-02-14T10:30:35;5.15;;;3.80;;
26540;SDS011;14206;50.202;10.948;2024-02-14T10:33:04;5.95;;;3.80;;
26540;SDS011;14206;50.202;10.948;2024-02-14T10:35:49;7.68;;;3.70;;
26540;SDS011;14206;50.202;10.948;2024-02-14T10:38:18;5.53;;;3.40;;
26540;SDS011;14206;50.202;10.948;2024-02-14T10:40:47;4.75;;;3.20;;
26540;SDS011;14206;50.202;10.948;2024-02-14T10:43:14;6.00;;;3.45;;
26540;SDS011;14206;50.202;10.948;2024-02-14T10:45:41;5.80;;;3.20;;
26540;SDS011;14206;50.202;10.948;2024-02-14T10:48:12;5.13;;;3.65;;
26540;SDS011;14206;50.202;10.948;2024-02-14T10:50:40;4.28;;;3.22;;
26540;SDS011;14206;50.202;10.948;2024-02-14T10:53:11;5.30;;;3.20;;
26540;SDS011;14206;50.202;10.948;2024-02-14T10:55:40;4.68;;;3.38;;
26540;SDS011;14206;50.202;10.948;2024-02-14T10:58:10;4.82;;;3.33;;
26540;SDS011;14206;50.202;10.948;2024-02-14T11:00:37;5.43;;;3.10;;
26540;SDS011;14206;50.202;10.948;2024-02-14T11:03:05;6.22;;;3.40;;
26540;SDS011;14206;50.202;10.948;2024-02-14T11:05:42;4.80;;;3.00;;
26540;SDS011;14206;50.202;10.948;2024-02-14T11:08:13;3.42;;;2.83;;
26540;SDS011;14206;50.202;10.948;2024-02-14T11:10:41;7.78;;;3.47;;
26540;SDS011;14206;50.202;10.948;2024-02-14T11:13:12;5.32;;;3.10;;
26540;SDS011;14206;50.202;10.948;2024-02-14T11:15:44;4.88;;;2.90;;
26540;SDS011;14206;50.202;10.948;2024-02-14T11:18:12;6.47;;;3.30;;
26540;SDS011;14206;50.202;10.948;2024-02-14T11:20:39;5.05;;;3.15;;
26540;SDS011;14206;50.202;10.948;2024-02-14T11:23:07;4.35;;;3.28;;
26540;SDS011;14206;50.202;10.948;2024-02-14T11:25:38;5.20;;;3.30;;
26540;SDS011;14206;50.202;10.948;2024-02-14T11:30:41;3.97;;;3.25;;
26540;SDS011;14206;50.202;10.948;2024-02-14T11:33:20;5.57;;;3.10;;
26540;SDS011;14206;50.202;10.948;2024-02-14T11:35:52;5.45;;;2.85;;
26540;SDS011;14206;50.202;10.948;2024-02-14T11:38:20;4.85;;;2.83;;
26540;SDS011;14206;50.202;10.948;2024-02-14T11:40:49;5.05;;;3.00;;
26540;SDS011;14206;50.202;10.948;2024-02-14T11:43:19;5.28;;;2.67;;
26540;SDS011;14206;50.202;10.948;2024-02-14T11:45:46;4.93;;;3.25;;
26540;SDS011;14206;50.202;10.948;2024-02-14T11:48:16;3.33;;;2.90;;
26540;SDS011;14206;50.202;10.948;2024-02-14T11:50:45;4.53;;;2.80;;
26540;SDS011;14206;50.202;10.948;2024-02-14T11:53:12;4.47;;;2.70;;
26540;SDS011;14206;50.202;10.948;2024-02-14T11:55:43;3.30;;;2.67;;
26540;SDS011;14206;50.202;10.948;2024-02-14T11:58:10;3.83;;;2.75;;
26540;SDS011;14206;50.202;10.948;2024-02-14T12:00:38;4.25;;;2.90;;
26540;SDS011;14206;50.202;10.948;2024-02-14T12:05:43;4.35;;;2.97;;
26540;SDS011;14206;50.202;10.948;2024-02-14T12:08:14;4.80;;;2.72;;
26540;SDS011;14206;50.202;10.948;2024-02-14T12:10:42;6.38;;;3.05;;
26540;SDS011;14206;50.202;10.948;2024-02-14T12:13:13;5.28;;;2.65;;
26540;SDS011;14206;50.202;10.948;2024-02-14T12:15:44;4.18;;;2.70;;
26540;SDS011;14206;50.202;10.948;2024-02-14T12:18:12;3.80;;;2.70;;
26540;SDS011;14206;50.202;10.948;2024-02-14T12:20:42;6.60;;;2.63;;
26540;SDS011;14206;50.202;10.948;2024-02-14T12:23:14;5.63;;;2.40;;
26540;SDS011;14206;50.202;10.948;2024-02-14T12:25:45;3.92;;;2.40;;
26540;SDS011;14206;50.202;10.948;2024-02-14T12:28:16;3.67;;;2.33;;
26540;SDS011;14206;50.202;10.948;2024-02-14T12:33:16;4.03;;;2.63;;
26540;SDS011;14206;50.202;10.948;2024-02-14T12:35:44;5.90;;;2.83;;
26540;SDS011;14206;50.202;10.948;2024-02-14T12:38:13;4.43;;;2.65;;
26540;SDS011;14206;50.202;10.948;2024-02-14T12:40:44;3.58;;;2.50;;
26540;SDS011;14206;50.202;10.948;2024-02-14T12:43:11;4.32;;;2.35;;
26540;SDS011;14206;50.202;10.948;2024-02-14T12:45:42;3.17;;;2.22;;
26540;SDS011;14206;50.202;10.948;2024-02-14T12:48:10;2.58;;;2.20;;
26540;SDS011;14206;50.202;10.948;2024-02-14T12:50:40;3.67;;;2.10;;
26540;SDS011;14206;50.202;10.948;2024-02-14T12:53:14;3.67;;;2.00;;
26540;SDS011;14206;50.202;10.948;2024-02-14T12:55:41;4.53;;;2.35;;
26540;SDS011;14206;50.202;10.948;2024-02-14T12:58:08;2.42;;;1.73;;
26540;SDS011;14206;50.202;10.948;2024-02-14T13:00:36;4.63;;;1.95;;
26540;SDS011;14206;50.202;10.948;2024-02-14T13:03:04;3.67;;;2.30;;
26540;SDS011;14206;50.202;10.948;2024-02-14T13:05:31;2.95;;;2.10;;
26540;SDS011;14206;50.202;10.948;2024-02-14T13:07:58;2.30;;;2.10;;
26540;SDS011;14206;50.202;10.948;2024-02-14T13:10:25;4.15;;;2.20;;
26540;SDS011;14206;50.202;10.948;2024-02-14T13:12:52;4.78;;;2.30;;
26540;SDS011;14206;50.202;10.948;2024-02-14T13:15:22;5.75;;;2.47;;
26540;SDS011;14206;50.202;10.948;2024-02-14T13:17:49;3.58;;;2.40;;
26540;SDS011;14206;50.202;10.948;2024-02-14T13:20:17;3.15;;;2.05;;
26540;SDS011;14206;50.202;10.948;2024-02-14T13:22:44;3.95;;;2.10;;
26540;SDS011;14206;50.202;10.948;2024-02-14T13:25:12;5.53;;;2.10;;
26540;SDS011;14206;50.202;10.948;2024-02-14T13:27:42;4.05;;;1.85;;
26540;SDS011;14206;50.202;10.948;2024-02-14T13:30:10;3.95;;;1.80;;
26540;SDS011;14206;50.202;10.948;2024-02-14T13:32:38;3.33;;;1.95;;
26540;SDS011;14206;50.202;10.948;2024-02-14T13:35:07;3.13;;;1.67;;
26540;SDS011;14206;50.202;10.948;2024-02-14T13:37:34;4.28;;;1.83;;
26540;SDS011;14206;50.202;10.948;2024-02-14T13:40:02;2.55;;;1.67;;
26540;SDS011;14206;50.202;10.948;2024-02-14T13:42:30;3.45;;;1.90;;
26540;SDS011;14206;50.202;10.948;2024-02-14T13:44:57;2.90;;;1.85;;
26540;SDS011;14206;50.202;10.948;2024-02-14T13:47:24;3.03;;;1.90;;
26540;SDS011;14206;50.202;10.948;2024-02-14T13:49:51;5.20;;;2.17;;
26540;SDS011;14206;50.202;10.948;2024-02-14T13:52:18;2.60;;;1.70;;
26540;SDS011;14206;50.202;10.948;2024-02-14T13:54:46;2.80;;;1.70;;
26540;SDS011;14206;50.202;10.948;2024-02-14T13:57:13;3.05;;;1.73;;
26540;SDS011;14206;50.202;10.948;2024-02-14T13:59:43;2.08;;;1.70;;
26540;SDS011;14206;50.202;10.948;2024-02-14T14:02:10;2.38;;;1.90;;
26540;SDS011;14206;50.202;10.948;2024-02-14T14:04:36;2.97;;;1.80;;
26540;SDS011;14206;50.202;10.948;2024-02-14T14:07:04;2.72;;;1.48;;
26540;SDS011;14206;50.202;10.948;2024-02-14T14:09:31;3.10;;;1.70;;
26540;SDS011;14206;50.202;10.948;2024-02-14T14:11:59;2.33;;;1.70;;
26540;SDS011;14206;50.202;10.948;2024-02-14T14:14:26;3.47;;;1.85;;
26540;SDS011;14206;50.202;10.948;2024-02-14T14:16:53;3.65;;;1.58;;
26540;SDS011;14206;50.202;10.948;2024-02-14T14:19:20;3.10;;;1.63;;
26540;SDS011;14206;50.202;10.948;2024-02-14T14:21:47;3.10;;;1.48;;
26540;SDS011;14206;50.202;10.948;2024-02-14T14:24:14;2.15;;;1.60;;
26540;SDS011;14206;50.202;10.948;2024-02-14T14:26:42;2.90;;;1.80;;
26540;SDS011;14206;50.202;10.948;2024-02-14T14:29:09;2.33;;;1.58;;
26540;SDS011;14206;50.202;10.948;2024-02-14T14:31:36;2.08;;;1.50;;
26540;SDS011;14206;50.202;10.948;2024-02-14T14:34:03;1.60;;;1.35;;
26540;SDS011;14206;50.202;10.948;2024-02-14T14:36:32;1.77;;;1.30;;
26540;SDS011;14206;50.202;10.948;2024-02-14T14:39:00;2.25;;;1.65;;
26540;SDS011;14206;50.202;10.948;2024-02-14T14:41:27;3.15;;;1.80;;
26540;SDS011;14206;50.202;10.948;2024-02-14T14:43:54;2.83;;;1.60;;
26540;SDS011;14206;50.202;10.948;2024-02-14T14:46:22;3.55;;;1.77;;
26540;SDS011;14206;50.202;10.948;2024-02-14T14:48:48;2.13;;;1.77;;